createdAt,value
2022-12-26T00:02:29.586Z,99.90
2022-12-26T00:05:00.691Z,99.90
2022-12-26T00:07:33.533Z,99.90
2022-12-26T00:10:07.121Z,99.90
2022-12-26T00:12:42.377Z,99.90
2022-12-26T00:15:12.944Z,99.90
2022-12-26T00:17:40.407Z,99.90
2022-12-26T00:20:11.698Z,99.90
2022-12-26T00:22:46.908Z,99.90
2022-12-26T00:25:17.738Z,99.90
2022-12-26T00:27:46.458Z,99.90
2022-12-26T00:30:19.401Z,99.90
2022-12-26T00:33:00.077Z,99.90
2022-12-26T00:35:34.565Z,99.90
2022-12-26T00:38:05.346Z,99.90
2022-12-26T00:40:58.691Z,99.90
2022-12-26T00:43:31.049Z,99.90
2022-12-26T00:46:04.516Z,99.90
2022-12-26T00:48:34.593Z,99.90
2022-12-26T00:51:08.480Z,99.90
2022-12-26T00:53:40.216Z,99.90
2022-12-26T00:56:12.378Z,99.90
2022-12-26T00:58:44.749Z,99.90
2022-12-26T01:01:23.024Z,99.90
2022-12-26T01:03:54.515Z,99.90
2022-12-26T01:06:22.456Z,99.90
2022-12-26T01:08:52.874Z,99.90
2022-12-26T01:11:40.693Z,99.90
2022-12-26T01:14:13.915Z,99.90
2022-12-26T01:16:45.582Z,99.90
2022-12-26T01:22:04.805Z,99.90
2022-12-26T01:24:33.331Z,99.90
2022-12-26T01:27:06.038Z,99.90
2022-12-26T01:29:38.278Z,99.90
2022-12-26T01:32:09.459Z,99.90
2022-12-26T01:34:41.827Z,99.90
2022-12-26T01:37:14.682Z,99.90
2022-12-26T01:39:46.368Z,99.90
2022-12-26T01:42:20.911Z,99.90
2022-12-26T01:45:03.166Z,99.90
2022-12-26T01:47:54.359Z,99.90
2022-12-26T01:51:00.745Z,99.90
2022-12-26T01:53:41.744Z,99.90
2022-12-26T01:56:42.454Z,99.90
2022-12-26T01:59:30.226Z,99.90
2022-12-26T02:02:03.178Z,99.90
2022-12-26T02:05:00.988Z,99.90
2022-12-26T02:07:36.529Z,99.90
2022-12-26T02:10:11.766Z,99.90
2022-12-26T02:12:41.622Z,99.90
2022-12-26T02:15:34.700Z,99.90
2022-12-26T02:18:05.722Z,99.90
2022-12-26T02:20:58.501Z,99.90
2022-12-26T02:24:14.279Z,99.90
2022-12-26T02:26:45.500Z,99.90
2022-12-26T02:30:05.037Z,99.90
2022-12-26T02:33:01.760Z,99.90
2022-12-26T02:36:02.167Z,99.90
2022-12-26T02:39:44.572Z,99.90
2022-12-26T02:42:22.033Z,99.90
2022-12-26T02:45:49.760Z,99.90
2022-12-26T02:48:42.507Z,99.90
2022-12-26T02:51:53.021Z,99.90
2022-12-26T02:55:06.177Z,99.90
2022-12-26T02:58:07.265Z,99.90
2022-12-26T03:01:04.493Z,99.90
2022-12-26T03:04:03.737Z,99.90
2022-12-26T03:06:57.554Z,99.90
2022-12-26T03:09:53.908Z,99.90
2022-12-26T03:12:55.301Z,99.90
2022-12-26T03:15:36.032Z,99.90
2022-12-26T03:18:06.725Z,99.90
2022-12-26T03:20:38.825Z,99.90
2022-12-26T03:23:14.749Z,99.90
2022-12-26T03:26:19.310Z,99.90
2022-12-26T03:28:49.031Z,99.90
2022-12-26T03:34:51.414Z,99.90
2022-12-26T03:37:54.958Z,99.90
2022-12-26T03:41:06.257Z,99.90
2022-12-26T03:45:11.019Z,99.90
2022-12-26T03:48:26.089Z,99.90
2022-12-26T03:51:49.091Z,99.90
2022-12-26T03:54:46.461Z,99.90
2022-12-26T03:57:40.168Z,99.90
2022-12-26T04:00:33.611Z,99.90
2022-12-26T04:03:31.126Z,99.90
2022-12-26T04:06:27.752Z,99.90
2022-12-26T04:09:20.324Z,99.90
2022-12-26T04:12:10.447Z,99.90
2022-12-26T04:15:19.036Z,99.90
2022-12-26T04:18:35.976Z,99.90
2022-12-26T04:22:16.113Z,99.90
2022-12-26T04:25:50.299Z,99.90
2022-12-26T04:28:38.215Z,99.90
2022-12-26T04:31:55.427Z,99.90
2022-12-26T04:34:54.223Z,99.90
2022-12-26T04:37:47.169Z,99.90
2022-12-26T04:40:41.571Z,99.90
2022-12-26T04:43:47.163Z,99.90
2022-12-26T04:46:25.612Z,99.90
2022-12-26T04:49:14.171Z,99.90
2022-12-26T04:51:44.365Z,99.90
2022-12-26T04:54:16.626Z,99.90
2022-12-26T04:56:47.845Z,99.90
2022-12-26T04:59:18.180Z,99.90
2022-12-26T05:02:06.647Z,99.90
2022-12-26T05:04:56.446Z,99.90
2022-12-26T05:07:55.859Z,99.90
2022-12-26T05:10:30.791Z,99.90
2022-12-26T05:13:01.915Z,99.90
2022-12-26T05:15:51.123Z,99.90
2022-12-26T05:18:40.756Z,99.90
2022-12-26T05:21:35.427Z,99.90
2022-12-26T05:24:46.789Z,99.90
2022-12-26T05:27:37.337Z,99.90
2022-12-26T05:30:09.329Z,99.90
2022-12-26T05:32:56.239Z,99.90
2022-12-26T05:35:29.196Z,99.90
2022-12-26T05:37:58.952Z,99.90
2022-12-26T05:40:28.080Z,99.90
2022-12-26T05:42:58.222Z,99.90
2022-12-26T05:45:30.745Z,99.90
2022-12-26T05:48:04.492Z,99.90
2022-12-26T05:50:35.487Z,99.90
2022-12-26T05:53:09.877Z,99.90
2022-12-26T05:55:43.226Z,99.90
2022-12-26T05:58:12.871Z,99.90
2022-12-26T06:00:46.753Z,99.90
2022-12-26T06:03:17.810Z,99.90
2022-12-26T06:05:49.079Z,99.90
2022-12-26T06:08:19.441Z,99.90
2022-12-26T06:10:51.427Z,99.90
2022-12-26T06:13:18.921Z,99.90
2022-12-26T06:15:50.594Z,99.90
2022-12-26T06:18:19.706Z,99.90
2022-12-26T06:20:51.510Z,99.90
2022-12-26T06:23:25.535Z,99.90
2022-12-26T06:25:58.253Z,99.90
2022-12-26T06:28:29.101Z,99.90
2022-12-26T06:31:08.593Z,99.90
2022-12-26T06:33:40.267Z,99.90
2022-12-26T06:36:15.299Z,99.90
2022-12-26T06:38:50.220Z,99.90
2022-12-26T06:41:25.266Z,99.90
2022-12-26T06:43:56.615Z,99.90
2022-12-26T06:46:28.648Z,99.90
2022-12-26T06:48:55.966Z,99.90
2022-12-26T06:51:28.938Z,99.90
2022-12-26T06:54:07.199Z,99.90
2022-12-26T06:56:42.569Z,99.90
2022-12-26T06:59:14.957Z,99.90
2022-12-26T07:01:50.459Z,99.90
2022-12-26T07:04:20.512Z,99.90
2022-12-26T07:06:49.772Z,99.90
2022-12-26T07:09:19.487Z,99.90
2022-12-26T07:11:50.914Z,99.90
2022-12-26T07:14:19.944Z,99.90
2022-12-26T07:16:49.653Z,99.90
2022-12-26T07:19:16.980Z,99.90
2022-12-26T07:21:46.081Z,99.90
2022-12-26T07:24:19.777Z,99.90
2022-12-26T07:26:49.383Z,99.90
2022-12-26T07:29:25.370Z,99.90
2022-12-26T07:31:53.142Z,99.90
2022-12-26T07:34:29.441Z,99.90
2022-12-26T07:37:01.681Z,99.90
2022-12-26T07:39:31.482Z,99.90
2022-12-26T07:42:00.184Z,99.90
2022-12-26T07:44:29.897Z,99.90
2022-12-26T07:47:00.923Z,99.90
2022-12-26T07:49:33.380Z,99.90
2022-12-26T07:52:10.167Z,99.90
2022-12-26T07:54:40.256Z,99.90
2022-12-26T07:57:46.387Z,99.90
2022-12-26T08:00:01.477Z,99.90
2022-12-26T08:02:42.655Z,99.90
2022-12-26T08:05:09.939Z,99.90
2022-12-26T08:07:40.467Z,99.90
2022-12-26T08:10:12.640Z,99.90
2022-12-26T08:12:41.613Z,99.90
2022-12-26T08:15:11.776Z,99.90
2022-12-26T08:17:39.184Z,99.90
2022-12-26T08:20:10.766Z,99.90
2022-12-26T08:22:40.632Z,99.90
2022-12-26T08:25:12.482Z,99.90
2022-12-26T08:27:44.514Z,99.90
2022-12-26T08:30:12.241Z,99.90
2022-12-26T08:32:44.342Z,99.90
2022-12-26T08:35:17.564Z,99.90
2022-12-26T08:37:49.620Z,99.90
2022-12-26T08:40:26.767Z,99.90
2022-12-26T08:43:30.330Z,99.90
2022-12-26T08:46:10.753Z,99.90
2022-12-26T08:48:43.901Z,99.90
2022-12-26T08:51:17.541Z,99.90
2022-12-26T08:53:52.183Z,99.90
2022-12-26T08:56:35.069Z,99.90
2022-12-26T08:59:03.898Z,99.90
2022-12-26T09:01:33.114Z,99.90
2022-12-26T09:04:07.569Z,99.90
2022-12-26T09:06:44.626Z,99.90
2022-12-26T09:09:13.059Z,99.90
2022-12-26T09:11:42.146Z,99.90
2022-12-26T09:14:11.283Z,99.90
2022-12-26T09:16:49.720Z,99.90
2022-12-26T09:19:21.966Z,99.90
2022-12-26T09:22:17.160Z,99.90
2022-12-26T09:24:47.596Z,99.90
2022-12-26T09:27:16.306Z,99.90
2022-12-26T09:29:43.967Z,99.90
2022-12-26T09:32:12.080Z,99.90
2022-12-26T09:34:43.401Z,99.90
2022-12-26T09:37:15.256Z,99.90
2022-12-26T09:39:45.216Z,99.90
2022-12-26T09:42:40.730Z,99.90
2022-12-26T09:45:19.227Z,99.90
2022-12-26T09:48:21.248Z,99.90
2022-12-26T09:50:54.428Z,99.90
2022-12-26T09:53:46.874Z,99.90
2022-12-26T09:56:44.676Z,99.90
2022-12-26T09:59:18.390Z,99.90
2022-12-26T10:01:52.433Z,99.90
2022-12-26T10:04:47.106Z,99.90
2022-12-26T10:07:40.691Z,99.90
2022-12-26T10:10:16.149Z,99.90
2022-12-26T10:13:36.246Z,99.90
2022-12-26T10:16:16.935Z,99.90
2022-12-26T10:19:32.271Z,99.90
2022-12-26T10:22:47.865Z,99.90
2022-12-26T10:25:47.955Z,99.90
2022-12-26T10:28:26.948Z,99.90
2022-12-26T10:31:03.885Z,99.90
2022-12-26T10:33:49.966Z,99.90
2022-12-26T10:36:37.346Z,99.90
2022-12-26T10:39:15.193Z,99.90
2022-12-26T10:41:51.236Z,99.90
2022-12-26T10:44:27.185Z,99.90
2022-12-26T10:47:20.988Z,99.90
2022-12-26T10:49:50.957Z,99.90
2022-12-26T10:52:25.098Z,99.90
2022-12-26T10:55:29.301Z,99.90
2022-12-26T10:57:55.732Z,99.90
2022-12-26T11:00:29.421Z,99.90
2022-12-26T11:03:18.085Z,99.90
2022-12-26T11:06:07.874Z,99.90
2022-12-26T11:08:50.049Z,99.90
2022-12-26T11:11:49.121Z,99.90
2022-12-26T11:14:34.572Z,99.90
2022-12-26T11:17:14.833Z,99.90
2022-12-26T11:19:44.425Z,99.90
2022-12-26T11:22:36.958Z,99.90
2022-12-26T11:25:16.810Z,99.90
2022-12-26T11:27:58.751Z,99.90
2022-12-26T11:30:31.811Z,99.90
2022-12-26T11:33:58.741Z,99.90
2022-12-26T11:36:35.620Z,99.90
2022-12-26T11:39:27.030Z,99.90
2022-12-26T11:42:00.731Z,99.90
2022-12-26T11:44:37.869Z,99.90
2022-12-26T11:47:23.012Z,99.90
2022-12-26T11:50:11.846Z,99.90
2022-12-26T11:53:04.604Z,99.90
2022-12-26T11:55:42.752Z,99.90
2022-12-26T11:58:15.475Z,99.90
2022-12-26T12:01:08.090Z,99.90
2022-12-26T12:03:50.171Z,99.90
2022-12-26T12:06:38.228Z,99.90
2022-12-26T12:09:28.507Z,99.90
2022-12-26T12:12:28.825Z,99.90
2022-12-26T12:15:40.172Z,99.90
2022-12-26T12:18:49.184Z,99.90
2022-12-26T12:22:09.624Z,99.90
2022-12-26T12:25:14.211Z,99.90
2022-12-26T12:27:55.068Z,99.90
2022-12-26T12:30:36.350Z,99.90
2022-12-26T12:33:38.117Z,99.90
2022-12-26T12:37:00.702Z,99.90
2022-12-26T12:39:43.284Z,99.90
2022-12-26T12:42:33.099Z,99.90
2022-12-26T12:45:31.863Z,99.90
2022-12-26T12:48:14.262Z,99.90
2022-12-26T12:51:17.581Z,99.90
2022-12-26T12:54:07.533Z,99.90
2022-12-26T12:57:12.421Z,99.90
2022-12-26T13:00:22.116Z,99.90
2022-12-26T13:03:19.209Z,99.90
2022-12-26T13:05:50.373Z,97.20
2022-12-26T13:08:42.260Z,92.10
2022-12-26T13:11:34.911Z,84.60
2022-12-26T13:14:08.751Z,76.30
2022-12-26T13:16:58.216Z,68.50
2022-12-26T13:19:51.536Z,65.40
2022-12-26T13:22:59.524Z,62.30
2022-12-26T13:25:39.472Z,60.30
2022-12-26T13:28:17.914Z,60.40
2022-12-26T13:30:59.634Z,62.80
2022-12-26T13:33:29.710Z,65.40
2022-12-26T13:36:06.191Z,68.90
2022-12-26T13:39:07.184Z,71.90
2022-12-26T13:41:58.117Z,74.40
2022-12-26T13:44:29.894Z,77.20
2022-12-26T13:46:59.467Z,80.30
2022-12-26T13:49:39.489Z,83.20
2022-12-26T13:52:34.337Z,86.10
2022-12-26T13:55:32.648Z,89.30
2022-12-26T13:58:23.517Z,91.20
2022-12-26T14:01:00.746Z,92.50
2022-12-26T14:03:51.501Z,93.70
2022-12-26T14:06:40.711Z,94.70
2022-12-26T14:09:40.545Z,95.90
2022-12-26T14:12:44.056Z,96.80
2022-12-26T14:15:54.112Z,97.70
2022-12-26T14:18:53.151Z,98.40
2022-12-26T14:21:47.373Z,99.20
2022-12-26T14:24:49.560Z,99.80
2022-12-26T14:28:00.903Z,99.90
2022-12-26T14:31:11.755Z,99.90
2022-12-26T14:33:48.622Z,99.90
2022-12-26T14:36:38.040Z,99.90
2022-12-26T14:39:55.299Z,99.90
2022-12-26T14:42:48.746Z,99.90
2022-12-26T14:45:33.380Z,99.90
2022-12-26T14:48:23.267Z,99.90
2022-12-26T14:50:55.504Z,99.90
2022-12-26T14:53:37.155Z,99.90
2022-12-26T14:56:20.676Z,99.90
2022-12-26T14:59:33.306Z,99.90
2022-12-26T15:02:19.734Z,99.90
2022-12-26T15:05:28.651Z,99.90
2022-12-26T15:08:29.948Z,99.90
2022-12-26T15:11:36.606Z,99.90
2022-12-26T15:14:44.053Z,99.90
2022-12-26T15:17:43.735Z,99.90
2022-12-26T15:20:42.286Z,99.90
2022-12-26T15:23:32.685Z,99.90
2022-12-26T15:26:36.104Z,99.90
2022-12-26T15:29:34.995Z,99.90
2022-12-26T15:32:26.150Z,99.90
2022-12-26T15:35:33.157Z,99.90
2022-12-26T15:38:36.641Z,99.90
2022-12-26T15:41:35.703Z,99.90
2022-12-26T15:44:10.137Z,99.90
2022-12-26T15:47:05.932Z,99.90
2022-12-26T15:50:00.811Z,99.90
2022-12-26T15:53:19.330Z,99.90
2022-12-26T15:56:06.667Z,99.90
2022-12-26T15:59:16.198Z,99.90
2022-12-26T16:01:49.439Z,99.90
2022-12-26T16:04:47.382Z,99.90
2022-12-26T16:07:47.348Z,99.90
2022-12-26T16:10:36.190Z,99.90
2022-12-26T16:13:28.793Z,99.90
2022-12-26T16:16:03.475Z,99.90
2022-12-26T16:18:35.220Z,99.90
2022-12-26T16:21:29.215Z,99.90
2022-12-26T16:23:57.554Z,99.90
2022-12-26T16:26:29.210Z,99.90
2022-12-26T16:29:00.820Z,99.90
2022-12-26T16:34:20.901Z,99.90
2022-12-26T16:36:53.885Z,99.90
2022-12-26T16:39:26.417Z,99.90
2022-12-26T16:42:10.504Z,99.90
2022-12-26T16:44:41.547Z,99.90
2022-12-26T16:47:22.795Z,99.90
2022-12-26T16:49:52.876Z,99.90
2022-12-26T16:52:46.222Z,99.90
2022-12-26T16:55:35.850Z,99.90
2022-12-26T16:58:23.292Z,99.90
2022-12-26T17:01:16.032Z,99.90
2022-12-26T17:04:06.334Z,99.90
2022-12-26T17:06:46.102Z,99.90
2022-12-26T17:09:19.133Z,99.90
2022-12-26T17:12:01.116Z,99.90
2022-12-26T17:14:35.327Z,99.90
2022-12-26T17:17:27.204Z,99.90
2022-12-26T17:20:01.731Z,99.90
2022-12-26T18:25:25.587Z,99.90
2022-12-26T18:27:53.722Z,99.90
2022-12-26T18:30:26.940Z,99.90
2022-12-26T18:32:54.895Z,99.90
2022-12-26T18:35:23.312Z,99.90
2022-12-26T18:37:54.457Z,99.90
2022-12-26T18:40:49.684Z,99.90
2022-12-26T18:43:22.177Z,99.90
2022-12-26T18:45:51.870Z,99.90
2022-12-26T18:48:20.344Z,99.90
2022-12-26T18:50:48.678Z,99.90
2022-12-26T18:53:19.513Z,99.90
2022-12-26T18:55:53.111Z,99.90
2022-12-26T18:58:23.541Z,99.90
2022-12-26T19:00:56.766Z,99.90
2022-12-26T19:03:27.838Z,99.90
2022-12-26T19:05:56.783Z,99.90
2022-12-26T19:08:28.232Z,99.90
2022-12-26T19:10:58.442Z,99.90
2022-12-26T19:13:30.781Z,99.90
2022-12-26T19:16:02.076Z,99.90
2022-12-26T19:18:29.875Z,99.90
2022-12-26T19:21:01.574Z,99.90
2022-12-26T19:23:33.737Z,99.90
2022-12-26T19:26:10.719Z,99.90
2022-12-26T19:28:41.675Z,99.90
2022-12-26T19:31:18.674Z,99.90
2022-12-26T19:33:50.310Z,99.90
2022-12-26T19:36:17.941Z,99.90
2022-12-26T19:38:48.648Z,99.90
2022-12-26T19:41:19.342Z,99.90
2022-12-26T19:43:46.934Z,99.90
2022-12-26T19:46:16.392Z,99.90
2022-12-26T19:48:44.872Z,99.90
2022-12-26T19:51:15.062Z,99.90
2022-12-26T19:53:45.261Z,99.90
2022-12-26T19:56:18.362Z,99.90
2022-12-26T19:58:53.127Z,99.90
2022-12-26T20:01:29.483Z,99.90
2022-12-26T20:04:18.887Z,99.90
2022-12-26T20:06:47.574Z,99.90
2022-12-26T20:09:18.030Z,99.90
2022-12-26T20:11:49.478Z,99.90
2022-12-26T20:14:23.839Z,99.90
2022-12-26T20:17:07.559Z,99.90
2022-12-26T20:19:36.391Z,99.90
2022-12-26T20:22:05.843Z,99.90
2022-12-26T20:24:34.510Z,99.90
2022-12-26T20:27:07.635Z,99.90
2022-12-26T20:29:35.760Z,99.90
2022-12-26T20:32:06.239Z,99.90
2022-12-26T20:34:35.274Z,99.90
2022-12-26T20:37:06.484Z,99.90
2022-12-26T20:39:36.079Z,99.90
2022-12-26T20:42:05.897Z,99.90
2022-12-26T20:44:35.563Z,99.90
2022-12-26T20:47:09.985Z,99.90
2022-12-26T20:49:37.870Z,99.90
2022-12-26T20:52:11.456Z,99.90
2022-12-26T20:54:40.525Z,99.90
2022-12-26T20:57:10.349Z,99.90
2022-12-26T20:59:40.175Z,99.90
2022-12-26T21:02:07.978Z,99.90
2022-12-26T21:04:43.619Z,99.90
2022-12-26T21:07:14.205Z,99.90
2022-12-26T21:09:46.563Z,99.90
2022-12-26T21:12:17.719Z,99.90
2022-12-26T21:14:46.957Z,99.90
2022-12-26T21:17:19.104Z,99.90
2022-12-26T21:19:49.803Z,99.90
2022-12-26T21:22:22.673Z,99.90
2022-12-26T21:24:51.401Z,99.90
2022-12-26T21:27:23.213Z,99.90
2022-12-26T21:29:56.236Z,99.90
2022-12-26T21:32:26.325Z,99.90
2022-12-26T21:34:57.171Z,99.90
2022-12-26T21:37:44.216Z,99.90
2022-12-26T21:40:14.007Z,99.90
2022-12-26T21:42:47.264Z,99.90
2022-12-26T21:45:14.866Z,99.90
2022-12-26T21:47:43.827Z,99.90
2022-12-26T21:50:14.793Z,99.90
2022-12-26T21:52:42.805Z,99.90
2022-12-26T21:55:31.295Z,99.90
2022-12-26T21:58:01.201Z,99.90
2022-12-26T22:00:32.067Z,99.90
2022-12-26T22:03:22.799Z,99.90
2022-12-26T22:05:55.100Z,99.90
2022-12-26T22:08:25.342Z,99.90
2022-12-26T22:11:13.310Z,99.90
2022-12-26T22:13:44.569Z,99.90
2022-12-26T22:16:13.119Z,99.90
2022-12-26T22:18:43.877Z,99.90
2022-12-26T22:21:27.749Z,99.90
2022-12-26T22:23:59.624Z,99.90
2022-12-26T22:26:36.614Z,99.90
2022-12-26T22:29:06.345Z,99.90
2022-12-26T22:31:36.470Z,99.90
2022-12-26T22:34:10.959Z,99.90
2022-12-26T22:36:41.735Z,99.90
2022-12-26T22:42:02.510Z,99.90
2022-12-26T22:44:36.801Z,99.90
2022-12-26T22:47:06.851Z,99.90
2022-12-26T22:49:35.910Z,99.90
2022-12-26T22:52:14.046Z,99.90
2022-12-26T22:54:46.859Z,99.90
2022-12-26T22:57:27.488Z,99.90
2022-12-26T23:00:12.166Z,99.90
2022-12-26T23:02:41.121Z,99.90
2022-12-26T23:05:14.654Z,99.90
2022-12-26T23:07:43.633Z,99.90
2022-12-26T23:10:20.994Z,99.90
2022-12-26T23:12:53.426Z,99.90
2022-12-26T23:15:25.440Z,99.90
2022-12-26T23:18:52.341Z,99.90
2022-12-26T23:21:45.942Z,99.90
2022-12-26T23:24:26.813Z,99.90
2022-12-26T23:27:37.751Z,99.90
2022-12-26T23:30:23.325Z,99.90
2022-12-26T23:32:54.856Z,99.90
2022-12-26T23:35:24.745Z,99.90
2022-12-26T23:37:54.823Z,99.90
2022-12-26T23:40:24.892Z,99.90
2022-12-26T23:42:54.142Z,99.90
2022-12-26T23:45:22.185Z,99.90
2022-12-26T23:47:54.008Z,99.90
2022-12-26T23:50:21.613Z,99.90
2022-12-26T23:52:55.664Z,99.90
2022-12-26T23:55:24.417Z,99.90
2022-12-26T23:57:58.372Z,99.90
